Time;durP1;ratioP1;P1;durP2;ratioP2;P2;SDS_P1;SDS_P2;PMS_P1;PMS_P2;Temp;Humidity;BMP_temperature;BMP_pressure;BME280_temperature;BME280_humidity;BME280_pressure;Samples;Min_cycle;Max_cycle;Signal;HPM_P1;HPM_P2
2021/12/29 00:00:41;;;;;;;20.25;6.50;;;;;;;0.04;100.00;97803.66;4493405;31;20108;-74
2021/12/29 00:03:10;;;;;;;21.30;6.03;;;;;;;-0.02;100.00;97809.19;4485264;32;20194;-75
2021/12/29 00:05:38;;;;;;;25.23;6.15;;;;;;;-0.03;100.00;97808.38;4485119;31;20084;-75
2021/12/29 00:08:05;;;;;;;12.25;5.68;;;;;;;-0.06;100.00;97807.72;4485105;31;20438;-74
2021/12/29 00:10:33;;;;;;;20.90;7.15;;;;;;;0.08;100.00;97805.13;4485053;31;20120;-74
2021/12/29 00:13:00;;;;;;;26.58;6.47;;;;;;;0.12;100.00;97798.03;4484896;31;20088;-75
2021/12/29 00:15:28;;;;;;;16.73;6.18;;;;;;;0.01;100.00;97803.84;4484987;31;20104;-75
2021/12/29 00:17:56;;;;;;;19.10;5.62;;;;;;;-0.05;100.00;97801.66;4484743;31;20520;-75
2021/12/29 00:20:28;;;;;;;27.42;6.57;;;;;;;0.04;100.00;97800.28;4485315;31;20108;-75
2021/12/29 00:23:01;;;;;;;20.83;6.90;;;;;;;0.03;100.00;97791.72;4484866;32;20872;-75
2021/12/29 00:25:28;;;;;;;26.02;6.28;;;;;;;0.04;100.00;97788.22;4485053;31;20126;-75
2021/12/29 00:27:58;;;;;;;30.30;7.10;;;;;;;0.04;100.00;97788.22;4484938;31;20156;-75
2021/12/29 00:30:26;;;;;;;20.45;6.68;;;;;;;-0.05;100.00;97784.44;4484923;31;20115;-75
2021/12/29 00:32:57;;;;;;;44.38;9.57;;;;;;;-0.05;100.00;97776.72;4485179;31;20192;-75
2021/12/29 00:35:29;;;;;;;49.83;8.25;;;;;;;-0.06;100.00;97776.81;4485292;31;20448;-74
2021/12/29 00:38:02;;;;;;;46.30;9.63;;;;;;;-0.07;100.00;97772.62;4485064;31;20107;-75
2021/12/29 00:40:37;;;;;;;18.23;5.90;;;;;;;-0.12;100.00;97769.47;4484893;31;20088;-74
2021/12/29 00:43:08;;;;;;;20.23;7.03;;;;;;;-0.10;100.00;97758.19;4484977;31;20093;-75
2021/12/29 00:45:38;;;;;;;19.58;6.45;;;;;;;-0.07;100.00;97772.62;4484895;31;20564;-75
2021/12/29 00:48:11;;;;;;;24.65;6.60;;;;;;;-0.13;100.00;97771.25;4484529;31;20088;-75
2021/12/29 00:50:39;;;;;;;24.50;6.53;;;;;;;-0.06;100.00;97769.94;4484794;32;20072;-75
2021/12/29 00:53:07;;;;;;;42.88;5.22;;;;;;;-0.12;100.00;97764.34;4484509;31;20089;-75
2021/12/29 00:55:35;;;;;;;24.98;6.82;;;;;;;-0.08;100.00;97774.34;4484715;31;20087;-75
2021/12/29 00:58:04;;;;;;;37.35;6.53;;;;;;;-0.11;100.00;97766.81;4484359;32;20586;-75
2021/12/29 01:00:32;;;;;;;32.05;6.93;;;;;;;-0.16;100.00;97763.72;4491130;31;20084;-74
2021/12/29 01:02:59;;;;;;;38.30;7.07;;;;;;;-0.07;100.00;97767.47;4500278;31;20442;-75
2021/12/29 01:05:26;;;;;;;50.33;8.05;;;;;;;-0.17;100.00;97761.22;4500178;31;20135;-75
2021/12/29 01:07:53;;;;;;;29.45;6.85;;;;;;;-0.21;100.00;97761.41;4500352;31;20080;-74
2021/12/29 01:10:20;;;;;;;33.25;6.72;;;;;;;-0.04;100.00;97756.97;4500208;31;20092;-74
2021/12/29 01:12:56;;;;;;;25.88;6.60;;;;;;;-0.11;100.00;97756.50;4503340;31;20089;-75
2021/12/29 01:15:31;;;;;;;32.88;6.82;;;;;;;-0.24;100.00;97759.03;4505510;31;20083;-74
2021/12/29 01:18:02;;;;;;;26.25;6.32;;;;;;;-0.24;100.00;97751.31;4505496;31;20084;-75
2021/12/29 01:20:30;;;;;;;37.53;7.00;;;;;;;-0.27;100.00;97759.22;4505608;31;20857;-75
2021/12/29 01:22:59;;;;;;;54.28;8.18;;;;;;;-0.18;100.00;97750.13;4505210;31;20099;-75
2021/12/29 01:25:26;;;;;;;49.10;7.65;;;;;;;-0.31;100.00;97750.03;4505222;31;20100;-74
2021/12/29 01:27:53;;;;;;;96.32;9.15;;;;;;;-0.34;100.00;97739.13;4505620;31;20080;-74
2021/12/29 01:30:21;;;;;;;54.47;7.95;;;;;;;-0.48;100.00;97743.34;4505367;31;20096;-75
2021/12/29 01:32:48;;;;;;;59.65;8.93;;;;;;;-0.37;100.00;97750.41;4505206;31;20164;-74
2021/12/29 01:35:15;;;;;;;54.47;7.90;;;;;;;-0.37;100.00;97760.69;4504942;31;20118;-75
2021/12/29 01:37:42;;;;;;;45.30;7.03;;;;;;;-0.33;100.00;97764.75;4505002;31;20092;-75
2021/12/29 01:40:14;;;;;;;41.97;7.90;;;;;;;-0.22;100.00;97759.75;4505345;31;20100;-75
2021/12/29 01:42:41;;;;;;;45.55;8.25;;;;;;;-0.13;100.00;97760.13;4505011;31;20209;-75
2021/12/29 01:45:09;;;;;;;40.55;7.43;;;;;;;-0.12;100.00;97764.34;4504954;31;20100;-74
2021/12/29 01:47:38;;;;;;;28.50;7.28;;;;;;;-0.20;100.00;97757.94;4505173;31;20144;-75
2021/12/29 01:50:08;;;;;;;34.25;6.47;;;;;;;-0.07;100.00;97762.31;4504849;31;20892;-75
2021/12/29 01:52:38;;;;;;;15.25;6.65;;;;;;;-0.17;100.00;97774.09;4504942;31;20084;-75
2021/12/29 01:55:10;;;;;;;15.85;6.82;;;;;;;-0.20;100.00;97783.69;4502399;31;78857;-75
2021/12/29 01:57:37;;;;;;;44.00;7.55;;;;;;;-0.27;100.00;97777.25;4503520;31;20088;-75
2021/12/29 02:00:08;;;;;;;40.95;7.43;;;;;;;-0.32;100.00;97779.25;4501310;31;20175;-75
2021/12/29 02:02:38;;;;;;;36.63;7.18;;;;;;;-0.22;100.00;97775.19;4488955;31;20124;-75
2021/12/29 02:05:06;;;;;;;24.05;7.50;;;;;;;-0.13;100.00;97773.81;4488925;31;20112;-75
2021/12/29 02:07:33;;;;;;;27.60;7.85;;;;;;;-0.12;100.00;97774.63;4488815;31;20111;-74
2021/12/29 02:10:01;;;;;;;46.67;8.43;;;;;;;-0.13;100.00;97773.00;4489155;31;20123;-75
2021/12/29 02:12:28;;;;;;;32.92;7.28;;;;;;;-0.14;100.00;97771.34;4487472;32;20134;-75
2021/12/29 02:14:55;;;;;;;39.40;8.13;;;;;;;-0.13;100.00;97770.41;4487730;32;20121;-75
2021/12/29 02:17:22;;;;;;;45.85;8.05;;;;;;;-0.30;100.00;97766.28;4488704;31;20100;-75
2021/12/29 02:19:51;;;;;;;33.65;8.45;;;;;;;-0.37;100.00;97771.00;4488523;31;20155;-75
2021/12/29 02:22:35;;;;;;;31.83;7.47;;;;;;;-0.30;100.00;97774.00;4488640;31;20111;-75
2021/12/29 02:25:34;;;;;;;33.70;8.43;;;;;;;-0.20;100.00;97773.38;4485064;32;20163;-75
2021/12/29 02:27:55;;;;;;;39.72;7.47;;;;;;;-0.19;100.00;97774.19;4485678;31;20442;-75
2021/12/29 02:30:25;;;;;;;47.67;7.80;;;;;;;-0.11;100.00;97778.88;4485830;31;20148;-75
2021/12/29 02:32:57;;;;;;;48.80;7.25;;;;;;;-0.22;100.00;97779.53;4485760;31;20115;-75
2021/12/29 02:35:25;;;;;;;59.75;7.47;;;;;;;-0.26;100.00;97772.91;4485761;31;20197;-75
2021/12/29 02:37:53;;;;;;;73.35;8.90;;;;;;;-0.21;100.00;97771.72;4485751;31;20119;-75
2021/12/29 02:40:20;;;;;;;37.92;8.02;;;;;;;-0.15;100.00;97778.25;4485442;31;20096;-75
2021/12/29 02:42:47;;;;;;;67.80;8.35;;;;;;;-0.05;100.00;97776.72;4485767;32;20160;-75
2021/12/29 02:45:18;;;;;;;54.53;8.57;;;;;;;-0.07;100.00;97781.16;4485729;31;20101;-75
2021/12/29 02:47:45;;;;;;;73.30;8.50;;;;;;;-0.04;100.00;97777.56;4485751;31;20088;-75
2021/12/29 02:50:15;;;;;;;42.80;8.13;;;;;;;-0.02;100.00;97783.44;4485572;31;20096;-75
2021/12/29 02:52:46;;;;;;;44.90;8.80;;;;;;;0.06;100.00;97777.81;4485589;31;20085;-75
2021/12/29 02:55:15;;;;;;;50.83;8.00;;;;;;;0.12;100.00;97787.72;4485714;31;20108;-75
2021/12/29 02:57:42;;;;;;;36.22;7.97;;;;;;;0.16;100.00;97792.59;4485436;31;20518;-75
2021/12/29 03:00:14;;;;;;;27.17;8.65;;;;;;;0.17;100.00;97776.22;4489488;31;20130;-75
2021/12/29 03:02:42;;;;;;;55.63;8.50;;;;;;;0.16;100.00;97782.28;4501488;31;20172;-75
2021/12/29 03:05:10;;;;;;;23.20;7.60;;;;;;;0.21;100.00;97778.59;4501246;31;20083;-75
2021/12/29 03:07:37;;;;;;;38.67;8.75;;;;;;;0.28;100.00;97777.31;4501385;31;20104;-75
2021/12/29 03:10:05;;;;;;;30.90;8.55;;;;;;;0.22;100.00;97767.37;4501317;31;20658;-75
2021/12/29 03:12:32;;;;;;;47.50;9.25;;;;;;;0.11;100.00;97776.59;4501327;31;20104;-75
2021/12/29 03:14:59;;;;;;;29.25;8.27;;;;;;;0.22;100.00;97769.97;4501352;31;20100;-75
2021/12/29 03:17:27;;;;;;;46.85;8.70;;;;;;;0.20;100.00;97771.78;4501228;31;20107;-75
2021/12/29 03:19:54;;;;;;;50.85;8.05;;;;;;;0.15;100.00;97783.22;4501202;31;20156;-75
2021/12/29 03:22:21;;;;;;;37.33;8.75;;;;;;;0.17;100.00;97776.22;4501365;31;20112;-75
2021/12/29 03:24:48;;;;;;;50.33;9.75;;;;;;;0.16;100.00;97778.91;4501067;31;20100;-75
2021/12/29 03:27:16;;;;;;;49.90;9.70;;;;;;;0.25;100.00;97777.50;4501400;31;20114;-75
2021/12/29 03:29:43;;;;;;;33.28;8.82;;;;;;;0.17;100.00;97778.81;4501245;31;20112;-75
2021/12/29 03:32:20;;;;;;;57.30;9.07;;;;;;;0.15;100.00;97778.09;4501189;31;20606;-75
2021/12/29 03:34:47;;;;;;;37.13;7.90;;;;;;;0.22;100.00;97772.53;4500772;31;20111;-75
2021/12/29 03:37:15;;;;;;;45.12;9.10;;;;;;;0.31;100.00;97779.69;4500903;31;20080;-75
2021/12/29 03:39:42;;;;;;;86.37;10.52;;;;;;;0.32;100.00;97774.44;4501002;31;20096;-75
2021/12/29 03:42:09;;;;;;;54.45;8.18;;;;;;;0.27;100.00;97796.25;4500992;31;20097;-75
2021/12/29 03:44:36;;;;;;;66.25;9.30;;;;;;;0.28;100.00;97795.34;4501017;31;20096;-75
2021/12/29 03:47:03;;;;;;;71.28;9.70;;;;;;;0.27;100.00;97791.09;4501104;31;20083;-75
2021/12/29 03:49:31;;;;;;;75.55;11.02;;;;;;;0.26;100.00;97784.28;4501025;31;20115;-75
2021/12/29 03:51:58;;;;;;;60.72;9.23;;;;;;;0.20;100.00;97769.22;4501135;31;20744;-75
2021/12/29 03:54:27;;;;;;;81.12;11.00;;;;;;;0.27;100.00;97765.34;4500995;31;20473;-75
2021/12/29 03:56:54;;;;;;;67.20;9.88;;;;;;;0.31;100.00;97777.91;4500847;31;20528;-74
2021/12/29 03:59:21;;;;;;;53.65;9.35;;;;;;;0.24;100.00;97778.41;4501208;31;20092;-75
2021/12/29 04:01:52;;;;;;;73.57;9.38;;;;;;;0.16;100.00;97795.16;4485824;31;20508;-75
2021/12/29 04:04:20;;;;;;;99.60;10.55;;;;;;;0.16;100.00;97795.16;4485277;31;20152;-74
2021/12/29 04:06:48;;;;;;;68.03;9.63;;;;;;;0.09;100.00;97795.66;4484927;31;20092;-75
2021/12/29 04:09:15;;;;;;;43.65;9.05;;;;;;;0.13;100.00;97797.94;4484097;32;20119;-75
2021/12/29 04:11:43;;;;;;;77.60;11.48;;;;;;;0.21;100.00;97794.88;4484920;32;20448;-75
2021/12/29 04:14:10;;;;;;;57.75;9.15;;;;;;;0.27;100.00;97796.25;4484954;31;20115;-75
2021/12/29 04:16:40;;;;;;;45.58;9.60;;;;;;;0.28;100.00;97803.06;4484950;31;20113;-75
2021/12/29 04:19:14;;;;;;;48.20;8.23;;;;;;;0.27;100.00;97811.69;4485143;31;20115;-75
2021/12/29 04:21:45;;;;;;;78.00;10.70;;;;;;;0.32;100.00;97807.09;4484988;31;20748;-75
2021/12/29 04:24:13;;;;;;;54.53;8.68;;;;;;;0.31;100.00;97808.03;4485338;32;20089;-75
2021/12/29 04:26:41;;;;;;;79.12;10.77;;;;;;;0.25;100.00;97819.53;4484886;31;20545;-75
2021/12/29 04:29:10;;;;;;;91.03;10.93;;;;;;;0.32;100.00;97801.94;4485038;31;20457;-75
2021/12/29 04:31:37;;;;;;;91.90;9.82;;;;;;;0.24;100.00;97807.56;4484868;31;20168;-75
2021/12/29 04:34:04;;;;;;;76.20;11.15;;;;;;;0.30;100.00;97798.63;4485126;31;20147;-75
2021/12/29 04:36:31;;;;;;;95.05;10.60;;;;;;;0.31;100.00;97792.56;4484767;31;20189;-75
2021/12/29 04:39:01;;;;;;;49.75;9.82;;;;;;;0.37;100.00;97802.47;4485032;32;20100;-75
2021/12/29 04:41:28;;;;;;;40.50;9.27;;;;;;;0.45;100.00;97804.56;4484984;31;20532;-75
2021/12/29 04:43:55;;;;;;;43.67;8.65;;;;;;;0.38;100.00;97817.03;4484961;31;20551;-74
2021/12/29 04:46:35;;;;;;;60.58;8.00;;;;;;;0.48;100.00;97814.69;4484195;32;20104;-75
2021/12/29 04:49:03;;;;;;;100.05;11.18;;;;;;;0.44;100.00;97813.22;4485084;31;20084;-75
2021/12/29 04:51:36;;;;;;;68.10;8.57;;;;;;;0.42;100.00;97810.72;4484821;32;20089;-75
2021/12/29 04:54:05;;;;;;;48.53;8.18;;;;;;;0.43;100.00;97811.56;4485426;31;20111;-75
2021/12/29 04:56:34;;;;;;;87.22;14.00;;;;;;;0.40;100.00;97822.91;4484734;31;20092;-74
2021/12/29 04:59:01;;;;;;;72.62;8.68;;;;;;;0.43;100.00;97812.38;4485200;31;20100;-74
2021/12/29 05:01:29;;;;;;;56.83;8.63;;;;;;;0.38;100.00;97814.44;4497045;31;20450;-75
2021/12/29 05:03:56;;;;;;;55.53;8.68;;;;;;;0.39;100.00;97820.41;4500635;31;20143;-75
2021/12/29 05:09:10;;;;;;;44.33;8.98;;;;;;;0.35;100.00;97812.87;4500693;31;20114;-75
2021/12/29 05:11:37;;;;;;;34.40;7.60;;;;;;;0.38;100.00;97818.75;4500295;31;20105;-74
2021/12/29 05:14:04;;;;;;;62.50;7.97;;;;;;;0.34;100.00;97816.38;4500414;31;20163;-74
2021/12/29 05:16:31;;;;;;;49.60;8.45;;;;;;;0.42;100.00;97815.88;4500141;31;20145;-75
2021/12/29 05:18:58;;;;;;;19.75;6.68;;;;;;;0.47;100.00;97816.44;4500434;31;20128;-75
2021/12/29 05:21:25;;;;;;;19.77;6.45;;;;;;;0.43;100.00;97811.56;4500141;31;20097;-75
2021/12/29 05:23:54;;;;;;;18.90;7.25;;;;;;;0.47;100.00;97813.00;4500366;31;20163;-75
2021/12/29 05:26:22;;;;;;;22.27;6.90;;;;;;;0.45;100.00;97809.72;4500135;31;20084;-75
2021/12/29 05:28:49;;;;;;;22.92;6.35;;;;;;;0.50;100.00;97816.25;4500424;31;20118;-74
2021/12/29 05:31:17;;;;;;;18.80;6.15;;;;;;;0.52;100.00;97814.37;4500313;31;20120;-75
2021/12/29 05:33:45;;;;;;;59.72;8.65;;;;;;;0.47;100.00;97813.84;4500019;31;20119;-75
2021/12/29 05:36:12;;;;;;;19.15;6.32;;;;;;;0.55;100.00;97815.13;4498838;31;20131;-75
2021/12/29 05:38:39;;;;;;;63.35;7.25;;;;;;;0.43;100.00;97827.84;4499854;31;20123;-75
2021/12/29 05:41:07;;;;;;;31.58;6.75;;;;;;;0.38;100.00;97818.75;4499880;31;20162;-75
2021/12/29 05:43:34;;;;;;;35.88;7.32;;;;;;;0.37;100.00;97833.38;4499934;31;20522;-75
2021/12/29 05:46:01;;;;;;;39.83;7.47;;;;;;;0.43;100.00;97838.16;4499828;31;20156;-75
2021/12/29 05:48:29;;;;;;;35.78;7.95;;;;;;;0.49;100.00;97834.38;4500046;31;20152;-75
2021/12/29 05:50:56;;;;;;;33.75;6.15;;;;;;;0.42;100.00;97831.34;4499807;31;20104;-75
2021/12/29 05:53:23;;;;;;;15.48;6.82;;;;;;;0.34;100.00;97838.75;4499582;31;20120;-75
2021/12/29 05:55:50;;;;;;;60.15;7.25;;;;;;;0.28;100.00;97837.37;4499707;31;20088;-75
2021/12/29 05:58:17;;;;;;;31.65;6.40;;;;;;;0.37;100.00;97841.12;4500236;31;20118;-75
2021/12/29 06:00:45;;;;;;;29.23;6.62;;;;;;;0.31;100.00;97838.94;4493896;31;20161;-75
2021/12/29 06:03:12;;;;;;;42.95;7.05;;;;;;;0.20;100.00;97836.19;4486039;31;20428;-74
2021/12/29 06:05:40;;;;;;;49.13;7.50;;;;;;;0.26;100.00;97841.78;4486005;31;20115;-74
2021/12/29 06:08:07;;;;;;;25.12;6.57;;;;;;;0.28;100.00;97849.44;4485786;31;20092;-75
2021/12/29 06:10:35;;;;;;;34.88;7.60;;;;;;;0.15;100.00;97845.03;4486263;31;20848;-74
2021/12/29 06:13:02;;;;;;;18.87;6.45;;;;;;;0.04;100.00;97842.28;4485849;31;20092;-75
2021/12/29 06:15:29;;;;;;;24.73;6.43;;;;;;;0.06;100.00;97845.59;4486069;31;20096;-74
2021/12/29 06:17:57;;;;;;;29.42;6.72;;;;;;;0.16;100.00;97849.25;4485695;31;20469;-75
2021/12/29 06:20:24;;;;;;;58.30;9.23;;;;;;;0.19;100.00;97845.66;4486021;31;20173;-75
2021/12/29 06:22:51;;;;;;;49.13;8.48;;;;;;;0.11;100.00;97853.88;4485992;31;20096;-74
2021/12/29 06:25:19;;;;;;;86.65;9.18;;;;;;;0.15;100.00;97849.34;4485990;31;20109;-74
2021/12/29 06:27:47;;;;;;;41.78;6.93;;;;;;;-0.06;100.00;97852.31;4485704;31;20100;-74
2021/12/29 06:30:16;;;;;;;24.40;6.93;;;;;;;-0.05;100.00;97853.97;4485848;31;20101;-74
2021/12/29 06:32:44;;;;;;;56.30;7.70;;;;;;;-0.07;100.00;97858.38;4485671;31;20112;-74
2021/12/29 06:35:13;;;;;;;72.07;7.32;;;;;;;-0.01;100.00;97854.63;4485751;31;20112;-75
2021/12/29 06:37:41;;;;;;;91.47;8.27;;;;;;;-0.17;100.00;97853.91;4485479;31;20119;-74
2021/12/29 06:40:09;;;;;;;87.15;8.43;;;;;;;-0.20;100.00;97865.19;4486021;31;20096;-74
2021/12/29 06:42:36;;;;;;;51.28;7.93;;;;;;;-0.20;100.00;97860.03;4485466;31;20627;-74
2021/12/29 06:45:12;;;;;;;118.00;10.70;;;;;;;-0.04;100.00;97865.09;4485978;31;20109;-74
2021/12/29 06:47:40;;;;;;;97.28;7.95;;;;;;;-0.04;100.00;97872.84;4485352;31;20152;-74
2021/12/29 06:50:08;;;;;;;131.23;10.95;;;;;;;0.08;100.00;97874.66;4485615;31;20096;-74
2021/12/29 06:52:35;;;;;;;88.15;8.27;;;;;;;0.16;100.00;97877.56;4485626;31;20115;-74
2021/12/29 06:55:03;;;;;;;86.90;8.85;;;;;;;0.11;100.00;97882.19;4485567;31;20588;-74
2021/12/29 06:57:30;;;;;;;50.85;8.00;;;;;;;0.14;100.00;97883.75;4485619;31;20160;-74
2021/12/29 06:59:57;;;;;;;163.68;11.70;;;;;;;0.25;100.00;97885.69;4488143;31;20108;-74
2021/12/29 07:02:25;;;;;;;90.97;9.02;;;;;;;0.03;100.00;97876.69;4501452;31;20147;-74
2021/12/29 07:04:52;;;;;;;81.95;9.60;;;;;;;-0.13;100.00;97886.25;4501188;31;20160;-74
2021/12/29 07:07:20;;;;;;;89.72;9.73;;;;;;;0.01;100.00;97886.25;4501210;31;20117;-75
2021/12/29 07:09:48;;;;;;;153.07;10.60;;;;;;;0.05;100.00;97885.16;4500688;31;20100;-74
2021/12/29 07:12:15;;;;;;;160.45;11.52;;;;;;;-0.03;100.00;97888.19;4501295;31;20087;-74
2021/12/29 07:14:42;;;;;;;262.70;14.20;;;;;;;-0.01;100.00;97891.47;4501017;31;20092;-74
2021/12/29 07:17:10;;;;;;;285.50;16.12;;;;;;;-0.07;100.00;97896.19;4501253;31;20134;-74
2021/12/29 07:19:37;;;;;;;251.60;13.98;;;;;;;-0.15;100.00;97904.37;4501045;31;20126;-74
2021/12/29 07:22:05;;;;;;;281.60;15.32;;;;;;;-0.15;100.00;97901.81;4501154;31;20088;-74
2021/12/29 07:24:33;;;;;;;196.60;13.55;;;;;;;-0.25;100.00;97904.06;4501055;31;20096;-74
2021/12/29 07:27:01;;;;;;;232.23;15.73;;;;;;;-0.09;100.00;97908.31;4501342;31;20103;-74
2021/12/29 07:29:28;;;;;;;132.52;10.57;;;;;;;-0.19;100.00;97911.44;4501094;31;20092;-74
2021/12/29 07:31:57;;;;;;;277.73;13.93;;;;;;;-0.21;100.00;97909.88;4501154;31;20138;-74
2021/12/29 07:34:25;;;;;;;148.90;11.68;;;;;;;-0.16;100.00;97909.62;4500868;31;20151;-74
2021/12/29 07:36:52;;;;;;;273.08;15.18;;;;;;;-0.19;100.00;97914.00;4500927;31;20083;-74
2021/12/29 07:39:20;;;;;;;111.95;9.73;;;;;;;-0.17;100.00;97919.06;4500906;31;20506;-74
2021/12/29 07:41:48;;;;;;;153.60;12.48;;;;;;;-0.10;100.00;97916.97;4500976;31;20139;-74
2021/12/29 07:44:17;;;;;;;123.38;11.27;;;;;;;-0.15;100.00;97914.66;4501181;31;20088;-74
2021/12/29 07:46:51;;;;;;;100.05;9.20;;;;;;;-0.19;100.00;97918.34;4500954;31;20080;-74
2021/12/29 07:49:18;;;;;;;63.15;8.00;;;;;;;-0.11;100.00;97921.28;4500954;31;20088;-74
2021/12/29 07:51:46;;;;;;;58.35;8.38;;;;;;;0.02;100.00;97931.69;4500951;31;20147;-75
2021/12/29 07:54:14;;;;;;;62.58;8.27;;;;;;;0.03;100.00;97933.34;4501065;31;20092;-74
2021/12/29 07:56:41;;;;;;;35.13;8.35;;;;;;;0.14;100.00;97928.37;4500976;31;20181;-75
2021/12/29 07:59:09;;;;;;;31.58;8.15;;;;;;;0.25;100.00;97927.72;4500966;31;20145;-75
2021/12/29 08:01:37;;;;;;;41.40;9.43;;;;;;;0.20;100.00;97929.75;4487562;31;20100;-75
2021/12/29 08:04:04;;;;;;;28.20;8.60;;;;;;;0.34;100.00;97934.06;4483795;32;20542;-75
2021/12/29 08:06:32;;;;;;;25.55;8.85;;;;;;;0.43;100.00;97936.06;4485170;32;20111;-75
2021/12/29 08:08:59;;;;;;;58.55;11.20;;;;;;;0.48;100.00;97930.63;4485059;31;20501;-75
2021/12/29 08:11:26;;;;;;;33.58;8.77;;;;;;;0.45;100.00;97934.22;4485001;31;20092;-75
2021/12/29 08:13:54;;;;;;;35.33;10.48;;;;;;;0.56;100.00;97941.31;4485072;31;20114;-75
2021/12/29 08:16:22;;;;;;;25.83;8.60;;;;;;;0.72;100.00;97941.16;4485092;31;20106;-75
2021/12/29 08:18:50;;;;;;;36.38;8.48;;;;;;;0.76;100.00;97950.37;4485207;31;20116;-75
2021/12/29 08:21:17;;;;;;;35.22;7.62;;;;;;;0.84;100.00;97948.13;4484209;31;20118;-75
2021/12/29 08:23:44;;;;;;;22.87;8.40;;;;;;;0.95;100.00;97956.94;4484395;31;20092;-75
2021/12/29 08:26:11;;;;;;;27.02;7.53;;;;;;;1.05;100.00;97952.88;4485171;31;20088;-75
2021/12/29 08:28:38;;;;;;;23.62;8.48;;;;;;;1.20;100.00;97967.38;4485152;31;20100;-75
2021/12/29 08:31:11;;;;;;;23.48;7.10;;;;;;;1.20;100.00;97972.53;4485057;32;20575;-75
2021/12/29 08:33:38;;;;;;;24.95;6.70;;;;;;;1.19;100.00;97970.84;4485021;31;20552;-75
2021/12/29 08:36:06;;;;;;;31.48;7.10;;;;;;;1.35;100.00;97967.31;4484800;31;20168;-75
2021/12/29 08:38:35;;;;;;;20.80;7.75;;;;;;;1.48;100.00;97963.00;4484853;31;20100;-75
2021/12/29 08:41:02;;;;;;;36.50;8.30;;;;;;;1.56;100.00;97983.97;4484829;31;20088;-75
2021/12/29 08:43:31;;;;;;;26.45;7.72;;;;;;;1.59;100.00;97981.19;4484802;31;20850;-75
2021/12/29 08:45:59;;;;;;;35.60;8.95;;;;;;;1.63;100.00;97978.41;4484704;31;20642;-75
2021/12/29 08:48:26;;;;;;;44.35;9.93;;;;;;;1.68;100.00;97984.94;4484792;31;20157;-75
2021/12/29 08:50:57;;;;;;;27.73;10.68;;;;;;;1.69;100.00;97984.00;4484759;31;20453;-75
2021/12/29 08:53:25;;;;;;;33.30;9.55;;;;;;;1.73;100.00;97990.63;4484878;31;20085;-75
2021/12/29 08:55:55;;;;;;;23.20;8.75;;;;;;;1.68;100.00;97986.69;4484561;31;20123;-75
2021/12/29 08:58:26;;;;;;;21.75;8.60;;;;;;;1.44;100.00;97983.94;4484686;31;20123;-75
2021/12/29 09:00:55;;;;;;;22.48;10.00;;;;;;;1.52;100.00;97982.53;4493179;31;20115;-75
2021/12/29 09:03:22;;;;;;;20.73;9.02;;;;;;;1.62;100.00;97981.91;4500472;31;20147;-75
2021/12/29 09:05:50;;;;;;;24.23;9.63;;;;;;;1.67;100.00;97977.31;4500228;31;20104;-75
2021/12/29 09:08:18;;;;;;;19.70;8.77;;;;;;;1.85;100.00;97978.66;4500235;31;20146;-75
2021/12/29 09:10:45;;;;;;;22.75;8.93;;;;;;;2.08;100.00;97989.22;4500140;31;20103;-75
2021/12/29 09:13:13;;;;;;;21.40;9.07;;;;;;;2.28;100.00;97983.50;4500197;31;20092;-75
2021/12/29 09:15:41;;;;;;;18.02;7.70;;;;;;;2.45;100.00;97986.72;4500101;31;20071;-75
2021/12/29 09:18:09;;;;;;;14.95;7.75;;;;;;;2.70;99.80;97977.28;4500547;31;20355;-75
2021/12/29 09:20:44;;;;;;;16.95;8.63;;;;;;;2.71;98.07;97972.00;4499917;31;20487;-75
2021/12/29 09:23:13;;;;;;;23.38;10.20;;;;;;;2.58;98.40;97974.59;4500205;31;20100;-75
2021/12/29 09:25:43;;;;;;;14.82;7.25;;;;;;;2.65;98.06;97964.66;4500055;31;20148;-75
2021/12/29 09:28:14;;;;;;;14.43;6.95;;;;;;;2.70;97.91;97959.97;4500213;31;20107;-75
2021/12/29 09:30:44;;;;;;;14.55;7.22;;;;;;;2.67;97.71;97952.44;4499949;31;20544;-75
2021/12/29 09:33:15;;;;;;;14.82;7.50;;;;;;;2.62;97.30;97952.78;4500594;31;20135;-75
2021/12/29 09:35:47;;;;;;;15.93;8.45;;;;;;;2.52;97.82;97948.34;4501811;31;20110;-75
2021/12/29 09:38:15;;;;;;;16.25;8.13;;;;;;;2.62;96.84;97942.41;4501973;31;20478;-75
2021/12/29 09:40:44;;;;;;;18.00;8.98;;;;;;;2.75;96.94;97949.31;4501763;31;20088;-75
2021/12/29 09:43:11;;;;;;;16.42;9.57;;;;;;;2.96;96.05;97955.53;4501898;31;20093;-75
2021/12/29 09:45:40;;;;;;;16.10;9.52;;;;;;;3.01;95.70;97950.87;4501988;31;20175;-75
2021/12/29 09:48:08;;;;;;;13.82;7.72;;;;;;;3.21;94.86;97951.22;4501841;31;20131;-75
2021/12/29 09:50:35;;;;;;;15.50;8.65;;;;;;;3.31;93.18;97951.37;4501758;31;20100;-75
2021/12/29 09:53:04;;;;;;;16.92;8.85;;;;;;;3.23;92.78;97945.94;4501917;31;20135;-75
2021/12/29 09:55:32;;;;;;;17.17;8.55;;;;;;;3.04;94.37;97944.66;4502031;31;20084;-75
2021/12/29 09:57:59;;;;;;;15.50;7.95;;;;;;;3.01;95.22;97943.13;4501976;31;20127;-75
2021/12/29 10:00:37;;;;;;;17.05;7.95;;;;;;;3.33;94.32;97946.88;4495801;31;20108;-75
2021/12/29 10:03:07;;;;;;;14.82;8.77;;;;;;;3.40;93.58;97945.50;4486087;31;20146;-75
2021/12/29 10:05:36;;;;;;;19.35;9.23;;;;;;;3.41;92.49;97944.59;4485821;31;20119;-75
2021/12/29 10:08:24;;;;;;;22.52;11.15;;;;;;;3.42;92.75;97935.84;4485868;31;20085;-75
2021/12/29 10:10:58;;;;;;;29.67;13.70;;;;;;;3.36;92.95;97937.16;4485959;32;20189;-75
2021/12/29 10:13:31;;;;;;;42.53;16.95;;;;;;;3.35;93.02;97938.09;4486016;32;20167;-75
2021/12/29 10:16:07;;;;;;;51.72;19.27;;;;;;;3.38;93.00;97934.44;4485768;31;20088;-75
2021/12/29 10:18:40;;;;;;;48.45;21.30;;;;;;;3.33;93.34;97939.97;4485969;31;20088;-75
2021/12/29 10:21:13;;;;;;;50.95;19.67;;;;;;;3.35;93.07;97939.84;4486009;31;20092;-75
2021/12/29 10:23:51;;;;;;;65.65;21.20;;;;;;;3.42;93.16;97935.03;4485932;31;20126;-75
2021/12/29 10:26:45;;;;;;;68.28;19.95;;;;;;;3.24;93.08;97940.66;4485718;31;20155;-75
2021/12/29 10:29:15;;;;;;;52.08;19.67;;;;;;;2.99;94.45;97949.34;4484754;32;20468;-75
2021/12/29 10:31:49;;;;;;;62.03;20.12;;;;;;;3.06;94.62;97949.72;4485958;31;20092;-75
2021/12/29 10:34:24;;;;;;;78.85;19.37;;;;;;;2.90;95.34;97942.22;4485884;31;20085;-75
2021/12/29 10:36:55;;;;;;;57.20;18.60;;;;;;;2.85;95.72;97937.38;4485634;31;20077;-75
2021/12/29 10:39:30;;;;;;;60.38;18.25;;;;;;;2.88;96.67;97941.50;4485795;31;20133;-75
2021/12/29 10:42:09;;;;;;;114.57;20.60;;;;;;;3.02;95.87;97943.94;4485384;31;20938;-75
2021/12/29 10:44:40;;;;;;;99.37;20.00;;;;;;;3.14;95.38;97947.41;4483903;32;20084;-75
2021/12/29 10:47:17;;;;;;;94.25;19.65;;;;;;;3.10;96.18;97953.75;4485585;31;20076;-75
2021/12/29 10:50:14;;;;;;;60.42;18.83;;;;;;;3.16;95.74;97954.16;4485795;31;20096;-75
2021/12/29 10:52:48;;;;;;;162.55;25.17;;;;;;;3.14;95.82;97950.00;4451770;32;20196;-75
2021/12/29 10:55:18;;;;;;;69.95;18.27;;;;;;;2.82;97.00;97946.19;4439133;32;20115;-75
2021/12/29 10:57:46;;;;;;;149.52;17.50;;;;;;;2.55;98.30;97942.97;4452014;32;20135;-75
2021/12/29 11:00:36;;;;;;;66.82;14.07;;;;;;;2.47;98.98;97939.16;4451672;32;20184;-75
2021/12/29 11:03:12;;;;;;;55.63;13.50;;;;;;;2.43;99.90;97949.81;4451690;32;20176;-75
2021/12/29 11:05:53;;;;;;;83.57;13.40;;;;;;;2.40;100.00;97947.44;4451772;32;20089;-75
2021/12/29 11:08:21;;;;;;;37.78;11.85;;;;;;;2.42;100.00;97953.31;4451765;32;20100;-75
2021/12/29 11:10:48;;;;;;;97.07;12.00;;;;;;;2.41;99.81;97956.84;4451538;32;20233;-75
2021/12/29 11:13:27;;;;;;;71.05;12.70;;;;;;;2.35;100.00;97947.75;4451771;32;20466;-75
2021/12/29 11:15:55;;;;;;;57.97;11.80;;;;;;;2.53;98.12;97952.56;4451635;32;20167;-75
2021/12/29 11:18:23;;;;;;;47.33;11.52;;;;;;;2.64;97.88;97950.87;4451893;32;20134;-75
2021/12/29 11:20:58;;;;;;;56.28;12.07;;;;;;;2.69;98.30;97952.34;4451744;32;20113;-75
2021/12/29 11:23:25;;;;;;;34.78;10.88;;;;;;;2.82;96.18;97942.78;4451846;32;20121;-75
2021/12/29 11:25:52;;;;;;;36.97;10.80;;;;;;;2.73;96.66;97951.19;4451753;32;20131;-75
2021/12/29 11:28:28;;;;;;;30.77;10.48;;;;;;;2.69;96.83;97952.34;4459077;31;20118;-75
2021/12/29 11:30:58;;;;;;;28.02;11.60;;;;;;;2.63;96.66;97951.84;4501278;31;20155;-75
2021/12/29 11:33:30;;;;;;;29.90;12.10;;;;;;;2.46;97.18;97947.00;4501170;31;20079;-75